sensor_id;sensor_type;location;lat;lon;timestamp;P1;durP1;ratioP1;P2;durP2;ratioP2
16792;SDS011;8513;42.662;23.350;2023-02-10T00:01:19;13.27;;;9.80;;
16792;SDS011;8513;42.662;23.350;2023-02-10T00:03:52;13.33;;;10.47;;
16792;SDS011;8513;42.662;23.350;2023-02-10T00:06:19;10.60;;;8.87;;
16792;SDS011;8513;42.662;23.350;2023-02-10T00:08:47;13.03;;;9.03;;
16792;SDS011;8513;42.662;23.350;2023-02-10T00:11:13;12.40;;;9.77;;
16792;SDS011;8513;42.662;23.350;2023-02-10T00:13:40;12.23;;;9.50;;
16792;SDS011;8513;42.662;23.350;2023-02-10T00:16:07;15.07;;;9.70;;
16792;SDS011;8513;42.662;23.350;2023-02-10T00:18:35;13.33;;;10.13;;
16792;SDS011;8513;42.662;23.350;2023-02-10T00:21:07;13.10;;;9.80;;
16792;SDS011;8513;42.662;23.350;2023-02-10T00:23:40;12.20;;;9.43;;
16792;SDS011;8513;42.662;23.350;2023-02-10T00:26:07;12.27;;;9.67;;
16792;SDS011;8513;42.662;23.350;2023-02-10T00:28:34;13.20;;;9.60;;
16792;SDS011;8513;42.662;23.350;2023-02-10T00:31:10;11.57;;;9.40;;
16792;SDS011;8513;42.662;23.350;2023-02-10T00:33:37;13.93;;;10.30;;
16792;SDS011;8513;42.662;23.350;2023-02-10T00:36:06;12.27;;;9.83;;
16792;SDS011;8513;42.662;23.350;2023-02-10T00:38:33;14.83;;;11.40;;
16792;SDS011;8513;42.662;23.350;2023-02-10T00:41:06;15.83;;;11.93;;
16792;SDS011;8513;42.662;23.350;2023-02-10T00:43:33;16.00;;;12.33;;
16792;SDS011;8513;42.662;23.350;2023-02-10T00:45:58;17.93;;;12.93;;
16792;SDS011;8513;42.662;23.350;2023-02-10T00:48:24;17.07;;;13.40;;
16792;SDS011;8513;42.662;23.350;2023-02-10T00:50:49;20.40;;;15.53;;
16792;SDS011;8513;42.662;23.350;2023-02-10T00:53:15;19.63;;;14.77;;
16792;SDS011;8513;42.662;23.350;2023-02-10T00:55:40;20.63;;;16.20;;
16792;SDS011;8513;42.662;23.350;2023-02-10T00:58:06;20.97;;;16.63;;
16792;SDS011;8513;42.662;23.350;2023-02-10T01:00:31;21.70;;;18.23;;
16792;SDS011;8513;42.662;23.350;2023-02-10T01:02:57;26.13;;;19.50;;
16792;SDS011;8513;42.662;23.350;2023-02-10T01:05:22;27.43;;;19.27;;
16792;SDS011;8513;42.662;23.350;2023-02-10T01:07:48;25.47;;;19.37;;
16792;SDS011;8513;42.662;23.350;2023-02-10T01:10:13;27.03;;;20.10;;
16792;SDS011;8513;42.662;23.350;2023-02-10T01:12:38;27.03;;;19.80;;
16792;SDS011;8513;42.662;23.350;2023-02-10T01:15:04;24.53;;;19.37;;
16792;SDS011;8513;42.662;23.350;2023-02-10T01:17:30;24.97;;;18.87;;
16792;SDS011;8513;42.662;23.350;2023-02-10T01:19:55;25.20;;;18.87;;
16792;SDS011;8513;42.662;23.350;2023-02-10T01:22:21;22.73;;;15.93;;
16792;SDS011;8513;42.662;23.350;2023-02-10T01:24:47;19.93;;;15.67;;
16792;SDS011;8513;42.662;23.350;2023-02-10T01:27:12;22.23;;;16.40;;
16792;SDS011;8513;42.662;23.350;2023-02-10T01:29:38;23.37;;;15.00;;
16792;SDS011;8513;42.662;23.350;2023-02-10T01:32:03;21.90;;;13.80;;
16792;SDS011;8513;42.662;23.350;2023-02-10T01:34:29;19.73;;;15.20;;
16792;SDS011;8513;42.662;23.350;2023-02-10T01:36:54;16.43;;;13.30;;
16792;SDS011;8513;42.662;23.350;2023-02-10T01:39:19;17.93;;;14.03;;
16792;SDS011;8513;42.662;23.350;2023-02-10T01:41:45;18.67;;;13.50;;
16792;SDS011;8513;42.662;23.350;2023-02-10T01:46:45;16.60;;;12.20;;
16792;SDS011;8513;42.662;23.350;2023-02-10T01:49:14;13.80;;;11.13;;
16792;SDS011;8513;42.662;23.350;2023-02-10T01:51:47;12.70;;;9.63;;
16792;SDS011;8513;42.662;23.350;2023-02-10T01:54:26;13.80;;;9.80;;
16792;SDS011;8513;42.662;23.350;2023-02-10T01:56:56;13.67;;;10.30;;
16792;SDS011;8513;42.662;23.350;2023-02-10T01:59:22;14.43;;;10.17;;
16792;SDS011;8513;42.662;23.350;2023-02-10T02:01:52;12.97;;;10.07;;
16792;SDS011;8513;42.662;23.350;2023-02-10T02:04:18;12.27;;;10.13;;
16792;SDS011;8513;42.662;23.350;2023-02-10T02:06:44;12.30;;;9.90;;
16792;SDS011;8513;42.662;23.350;2023-02-10T02:09:10;11.57;;;9.33;;
16792;SDS011;8513;42.662;23.350;2023-02-10T02:11:55;12.30;;;9.93;;
16792;SDS011;8513;42.662;23.350;2023-02-10T02:17:28;11.23;;;9.27;;
16792;SDS011;8513;42.662;23.350;2023-02-10T02:23:11;11.27;;;9.30;;
16792;SDS011;8513;42.662;23.350;2023-02-10T02:30:55;10.90;;;8.33;;
16792;SDS011;8513;42.662;23.350;2023-02-10T02:33:43;10.03;;;8.27;;
16792;SDS011;8513;42.662;23.350;2023-02-10T02:36:20;13.23;;;8.70;;
16792;SDS011;8513;42.662;23.350;2023-02-10T02:38:57;10.50;;;7.90;;
16792;SDS011;8513;42.662;23.350;2023-02-10T02:41:29;12.63;;;9.50;;
16792;SDS011;8513;42.662;23.350;2023-02-10T02:43:55;11.50;;;9.20;;
16792;SDS011;8513;42.662;23.350;2023-02-10T02:49:41;12.17;;;9.20;;
16792;SDS011;8513;42.662;23.350;2023-02-10T02:52:17;13.27;;;9.13;;
16792;SDS011;8513;42.662;23.350;2023-02-10T02:54:59;11.23;;;9.40;;
16792;SDS011;8513;42.662;23.350;2023-02-10T03:00:19;13.63;;;9.80;;
16792;SDS011;8513;42.662;23.350;2023-02-10T03:02:48;11.20;;;9.30;;
16792;SDS011;8513;42.662;23.350;2023-02-10T03:05:21;11.93;;;9.47;;
16792;SDS011;8513;42.662;23.350;2023-02-10T03:07:53;13.73;;;9.63;;
16792;SDS011;8513;42.662;23.350;2023-02-10T03:10:19;14.70;;;10.67;;
16792;SDS011;8513;42.662;23.350;2023-02-10T03:12:46;18.40;;;13.37;;
16792;SDS011;8513;42.662;23.350;2023-02-10T03:15:12;16.37;;;13.20;;
16792;SDS011;8513;42.662;23.350;2023-02-10T03:17:37;19.93;;;15.17;;
16792;SDS011;8513;42.662;23.350;2023-02-10T03:20:03;18.87;;;14.63;;
16792;SDS011;8513;42.662;23.350;2023-02-10T03:22:28;16.60;;;12.97;;
16792;SDS011;8513;42.662;23.350;2023-02-10T03:24:54;18.17;;;13.90;;
16792;SDS011;8513;42.662;23.350;2023-02-10T03:27:19;22.63;;;15.43;;
16792;SDS011;8513;42.662;23.350;2023-02-10T03:29:45;23.87;;;17.33;;
16792;SDS011;8513;42.662;23.350;2023-02-10T03:32:13;26.07;;;19.23;;
16792;SDS011;8513;42.662;23.350;2023-02-10T03:34:39;26.43;;;20.17;;
16792;SDS011;8513;42.662;23.350;2023-02-10T03:37:04;29.40;;;20.37;;
16792;SDS011;8513;42.662;23.350;2023-02-10T03:39:31;27.77;;;20.13;;
16792;SDS011;8513;42.662;23.350;2023-02-10T03:41:56;32.47;;;22.43;;
16792;SDS011;8513;42.662;23.350;2023-02-10T03:44:22;30.53;;;21.20;;
16792;SDS011;8513;42.662;23.350;2023-02-10T03:46:47;28.60;;;21.70;;
16792;SDS011;8513;42.662;23.350;2023-02-10T03:49:13;30.77;;;21.47;;
16792;SDS011;8513;42.662;23.350;2023-02-10T03:51:38;33.77;;;22.53;;
16792;SDS011;8513;42.662;23.350;2023-02-10T03:54:03;29.03;;;22.07;;
16792;SDS011;8513;42.662;23.350;2023-02-10T03:56:29;33.40;;;22.83;;
16792;SDS011;8513;42.662;23.350;2023-02-10T03:58:54;29.23;;;21.83;;
16792;SDS011;8513;42.662;23.350;2023-02-10T04:01:20;31.17;;;22.10;;
16792;SDS011;8513;42.662;23.350;2023-02-10T04:03:45;28.73;;;21.13;;
16792;SDS011;8513;42.662;23.350;2023-02-10T04:06:11;31.13;;;22.10;;
16792;SDS011;8513;42.662;23.350;2023-02-10T04:08:37;29.57;;;21.37;;
16792;SDS011;8513;42.662;23.350;2023-02-10T04:11:03;29.23;;;20.90;;
16792;SDS011;8513;42.662;23.350;2023-02-10T04:13:29;28.47;;;20.80;;
16792;SDS011;8513;42.662;23.350;2023-02-10T04:15:59;27.57;;;20.17;;
16792;SDS011;8513;42.662;23.350;2023-02-10T04:18:29;29.13;;;20.23;;
16792;SDS011;8513;42.662;23.350;2023-02-10T04:20:55;25.57;;;19.53;;
16792;SDS011;8513;42.662;23.350;2023-02-10T04:23:21;24.97;;;18.07;;
16792;SDS011;8513;42.662;23.350;2023-02-10T04:25:46;28.07;;;20.23;;
16792;SDS011;8513;42.662;23.350;2023-02-10T04:28:12;25.83;;;18.90;;
16792;SDS011;8513;42.662;23.350;2023-02-10T04:30:37;28.53;;;19.97;;
16792;SDS011;8513;42.662;23.350;2023-02-10T04:33:03;29.50;;;20.23;;
16792;SDS011;8513;42.662;23.350;2023-02-10T04:35:28;28.80;;;20.60;;
16792;SDS011;8513;42.662;23.350;2023-02-10T04:37:53;28.87;;;20.37;;
16792;SDS011;8513;42.662;23.350;2023-02-10T04:40:21;27.40;;;20.10;;
16792;SDS011;8513;42.662;23.350;2023-02-10T04:42:47;28.57;;;19.33;;
16792;SDS011;8513;42.662;23.350;2023-02-10T04:45:12;28.77;;;20.00;;
16792;SDS011;8513;42.662;23.350;2023-02-10T04:47:38;30.03;;;21.67;;
16792;SDS011;8513;42.662;23.350;2023-02-10T04:50:03;26.20;;;19.33;;
16792;SDS011;8513;42.662;23.350;2023-02-10T04:52:29;26.97;;;19.63;;
16792;SDS011;8513;42.662;23.350;2023-02-10T04:54:55;26.90;;;19.53;;
16792;SDS011;8513;42.662;23.350;2023-02-10T04:57:20;28.40;;;20.03;;
16792;SDS011;8513;42.662;23.350;2023-02-10T04:59:46;25.47;;;19.50;;
16792;SDS011;8513;42.662;23.350;2023-02-10T05:02:11;28.47;;;20.47;;
16792;SDS011;8513;42.662;23.350;2023-02-10T05:04:36;29.73;;;21.13;;
16792;SDS011;8513;42.662;23.350;2023-02-10T05:07:02;26.83;;;20.33;;
16792;SDS011;8513;42.662;23.350;2023-02-10T05:09:27;29.43;;;21.37;;
16792;SDS011;8513;42.662;23.350;2023-02-10T05:11:53;28.57;;;20.43;;
16792;SDS011;8513;42.662;23.350;2023-02-10T05:14:18;27.03;;;19.97;;
16792;SDS011;8513;42.662;23.350;2023-02-10T05:16:44;28.60;;;21.07;;
16792;SDS011;8513;42.662;23.350;2023-02-10T05:19:09;29.90;;;22.47;;
16792;SDS011;8513;42.662;23.350;2023-02-10T05:21:35;28.30;;;21.07;;
16792;SDS011;8513;42.662;23.350;2023-02-10T05:24:01;30.50;;;21.70;;
16792;SDS011;8513;42.662;23.350;2023-02-10T05:26:27;27.47;;;21.57;;
16792;SDS011;8513;42.662;23.350;2023-02-10T05:28:52;29.03;;;22.50;;
16792;SDS011;8513;42.662;23.350;2023-02-10T05:31:18;24.70;;;19.83;;
16792;SDS011;8513;42.662;23.350;2023-02-10T05:33:43;26.97;;;19.40;;
16792;SDS011;8513;42.662;23.350;2023-02-10T05:36:09;25.27;;;19.33;;
16792;SDS011;8513;42.662;23.350;2023-02-10T05:38:34;27.33;;;20.80;;
16792;SDS011;8513;42.662;23.350;2023-02-10T05:40:59;29.57;;;21.83;;
16792;SDS011;8513;42.662;23.350;2023-02-10T05:43:25;24.63;;;18.73;;
16792;SDS011;8513;42.662;23.350;2023-02-10T05:45:50;23.90;;;18.23;;
16792;SDS011;8513;42.662;23.350;2023-02-10T05:48:16;23.47;;;17.17;;
16792;SDS011;8513;42.662;23.350;2023-02-10T05:50:41;23.13;;;16.10;;
16792;SDS011;8513;42.662;23.350;2023-02-10T05:53:07;22.73;;;16.37;;
16792;SDS011;8513;42.662;23.350;2023-02-10T05:55:33;24.73;;;17.17;;
16792;SDS011;8513;42.662;23.350;2023-02-10T05:57:58;23.70;;;17.27;;
16792;SDS011;8513;42.662;23.350;2023-02-10T06:00:24;26.63;;;18.90;;
16792;SDS011;8513;42.662;23.350;2023-02-10T06:02:49;29.50;;;19.10;;
16792;SDS011;8513;42.662;23.350;2023-02-10T06:05:14;27.07;;;19.67;;
16792;SDS011;8513;42.662;23.350;2023-02-10T06:07:40;29.00;;;20.07;;
16792;SDS011;8513;42.662;23.350;2023-02-10T06:10:06;29.53;;;20.67;;
16792;SDS011;8513;42.662;23.350;2023-02-10T06:12:31;28.87;;;20.40;;
16792;SDS011;8513;42.662;23.350;2023-02-10T06:14:57;30.43;;;21.00;;
16792;SDS011;8513;42.662;23.350;2023-02-10T06:17:22;26.23;;;19.87;;
16792;SDS011;8513;42.662;23.350;2023-02-10T06:19:48;28.00;;;21.03;;
16792;SDS011;8513;42.662;23.350;2023-02-10T06:22:13;28.13;;;21.40;;
16792;SDS011;8513;42.662;23.350;2023-02-10T06:24:39;31.87;;;21.10;;
16792;SDS011;8513;42.662;23.350;2023-02-10T06:27:06;26.43;;;19.63;;
16792;SDS011;8513;42.662;23.350;2023-02-10T06:29:32;31.53;;;20.27;;
16792;SDS011;8513;42.662;23.350;2023-02-10T06:31:57;30.00;;;21.27;;
16792;SDS011;8513;42.662;23.350;2023-02-10T06:34:23;25.43;;;19.70;;
16792;SDS011;8513;42.662;23.350;2023-02-10T06:36:48;27.10;;;19.60;;
16792;SDS011;8513;42.662;23.350;2023-02-10T06:39:14;28.03;;;20.97;;
16792;SDS011;8513;42.662;23.350;2023-02-10T06:41:39;25.43;;;20.47;;
16792;SDS011;8513;42.662;23.350;2023-02-10T06:44:04;30.77;;;20.00;;
16792;SDS011;8513;42.662;23.350;2023-02-10T06:46:30;29.50;;;20.80;;
16792;SDS011;8513;42.662;23.350;2023-02-10T06:48:55;27.43;;;20.53;;
16792;SDS011;8513;42.662;23.350;2023-02-10T06:51:21;26.83;;;21.07;;
16792;SDS011;8513;42.662;23.350;2023-02-10T06:53:47;28.43;;;21.80;;
16792;SDS011;8513;42.662;23.350;2023-02-10T06:56:13;29.53;;;20.33;;
16792;SDS011;8513;42.662;23.350;2023-02-10T06:58:38;28.80;;;20.70;;
16792;SDS011;8513;42.662;23.350;2023-02-10T07:01:07;27.03;;;21.70;;
16792;SDS011;8513;42.662;23.350;2023-02-10T07:03:34;27.37;;;20.83;;
16792;SDS011;8513;42.662;23.350;2023-02-10T07:05:59;29.07;;;22.07;;
16792;SDS011;8513;42.662;23.350;2023-02-10T07:08:25;28.60;;;21.73;;
16792;SDS011;8513;42.662;23.350;2023-02-10T07:10:50;33.93;;;21.77;;
16792;SDS011;8513;42.662;23.350;2023-02-10T07:13:16;27.43;;;20.73;;
16792;SDS011;8513;42.662;23.350;2023-02-10T07:15:41;29.40;;;23.07;;
16792;SDS011;8513;42.662;23.350;2023-02-10T07:18:07;29.73;;;22.77;;
16792;SDS011;8513;42.662;23.350;2023-02-10T07:20:32;33.20;;;22.50;;
16792;SDS011;8513;42.662;23.350;2023-02-10T07:22:58;33.47;;;23.17;;
16792;SDS011;8513;42.662;23.350;2023-02-10T07:25:23;29.63;;;22.67;;
16792;SDS011;8513;42.662;23.350;2023-02-10T07:27:48;29.70;;;21.50;;
16792;SDS011;8513;42.662;23.350;2023-02-10T07:30:14;30.07;;;21.87;;
16792;SDS011;8513;42.662;23.350;2023-02-10T07:32:39;30.73;;;21.90;;
16792;SDS011;8513;42.662;23.350;2023-02-10T07:35:06;32.97;;;22.87;;
16792;SDS011;8513;42.662;23.350;2023-02-10T07:37:32;28.57;;;21.67;;
16792;SDS011;8513;42.662;23.350;2023-02-10T07:39:58;30.77;;;21.33;;
16792;SDS011;8513;42.662;23.350;2023-02-10T07:42:23;27.07;;;21.43;;
16792;SDS011;8513;42.662;23.350;2023-02-10T07:44:48;29.27;;;22.67;;
16792;SDS011;8513;42.662;23.350;2023-02-10T07:47:14;28.17;;;21.47;;
16792;SDS011;8513;42.662;23.350;2023-02-10T07:49:39;31.23;;;22.23;;
16792;SDS011;8513;42.662;23.350;2023-02-10T07:52:05;28.27;;;21.23;;
16792;SDS011;8513;42.662;23.350;2023-02-10T07:54:30;29.77;;;21.03;;
16792;SDS011;8513;42.662;23.350;2023-02-10T07:56:56;27.77;;;21.43;;
16792;SDS011;8513;42.662;23.350;2023-02-10T07:59:21;28.27;;;20.87;;
16792;SDS011;8513;42.662;23.350;2023-02-10T08:01:47;28.33;;;21.83;;
16792;SDS011;8513;42.662;23.350;2023-02-10T08:04:12;29.63;;;22.20;;
16792;SDS011;8513;42.662;23.350;2023-02-10T08:06:38;26.17;;;21.00;;
16792;SDS011;8513;42.662;23.350;2023-02-10T08:09:04;33.17;;;21.53;;
16792;SDS011;8513;42.662;23.350;2023-02-10T08:11:30;28.50;;;21.97;;
16792;SDS011;8513;42.662;23.350;2023-02-10T08:13:56;30.70;;;22.23;;
16792;SDS011;8513;42.662;23.350;2023-02-10T08:16:22;25.73;;;21.47;;
16792;SDS011;8513;42.662;23.350;2023-02-10T08:18:47;28.57;;;21.03;;
16792;SDS011;8513;42.662;23.350;2023-02-10T08:21:13;26.87;;;21.80;;
16792;SDS011;8513;42.662;23.350;2023-02-10T08:23:38;31.20;;;21.83;;
16792;SDS011;8513;42.662;23.350;2023-02-10T08:26:08;29.10;;;23.17;;
16792;SDS011;8513;42.662;23.350;2023-02-10T08:28:35;26.83;;;21.60;;
16792;SDS011;8513;42.662;23.350;2023-02-10T08:31:02;27.27;;;20.30;;
16792;SDS011;8513;42.662;23.350;2023-02-10T08:33:29;28.40;;;20.30;;
16792;SDS011;8513;42.662;23.350;2023-02-10T08:35:55;28.53;;;20.03;;
16792;SDS011;8513;42.662;23.350;2023-02-10T08:38:21;28.93;;;20.50;;
16792;SDS011;8513;42.662;23.350;2023-02-10T08:40:56;23.47;;;18.27;;
16792;SDS011;8513;42.662;23.350;2023-02-10T08:43:22;24.37;;;18.33;;
16792;SDS011;8513;42.662;23.350;2023-02-10T08:45:48;23.23;;;18.13;;
16792;SDS011;8513;42.662;23.350;2023-02-10T08:48:14;24.30;;;17.90;;
16792;SDS011;8513;42.662;23.350;2023-02-10T08:50:39;25.13;;;18.37;;
16792;SDS011;8513;42.662;23.350;2023-02-10T08:53:05;27.97;;;19.90;;
16792;SDS011;8513;42.662;23.350;2023-02-10T08:55:30;27.63;;;19.80;;
16792;SDS011;8513;42.662;23.350;2023-02-10T08:57:55;26.10;;;20.53;;
16792;SDS011;8513;42.662;23.350;2023-02-10T09:00:21;34.30;;;20.33;;
16792;SDS011;8513;42.662;23.350;2023-02-10T09:02:48;28.87;;;20.17;;
16792;SDS011;8513;42.662;23.350;2023-02-10T09:05:15;29.27;;;20.20;;
16792;SDS011;8513;42.662;23.350;2023-02-10T09:07:43;28.03;;;19.93;;
16792;SDS011;8513;42.662;23.350;2023-02-10T09:10:09;30.27;;;20.07;;
16792;SDS011;8513;42.662;23.350;2023-02-10T09:12:35;29.47;;;19.73;;
16792;SDS011;8513;42.662;23.350;2023-02-10T09:15:01;28.30;;;20.87;;
16792;SDS011;8513;42.662;23.350;2023-02-10T09:17:27;28.20;;;19.40;;
16792;SDS011;8513;42.662;23.350;2023-02-10T09:19:52;29.03;;;20.60;;
16792;SDS011;8513;42.662;23.350;2023-02-10T09:22:18;24.20;;;19.40;;
16792;SDS011;8513;42.662;23.350;2023-02-10T09:24:43;30.20;;;20.07;;
16792;SDS011;8513;42.662;23.350;2023-02-10T09:27:12;27.20;;;19.33;;
16792;SDS011;8513;42.662;23.350;2023-02-10T09:29:38;23.80;;;19.57;;
16792;SDS011;8513;42.662;23.350;2023-02-10T09:32:03;23.20;;;17.73;;
16792;SDS011;8513;42.662;23.350;2023-02-10T09:34:29;24.80;;;18.13;;
16792;SDS011;8513;42.662;23.350;2023-02-10T09:36:55;22.93;;;16.33;;
16792;SDS011;8513;42.662;23.350;2023-02-10T09:39:22;23.27;;;17.47;;
16792;SDS011;8513;42.662;23.350;2023-02-10T09:44:36;25.37;;;18.73;;
16792;SDS011;8513;42.662;23.350;2023-02-10T09:47:16;24.17;;;18.07;;
16792;SDS011;8513;42.662;23.350;2023-02-10T09:55:15;22.33;;;16.67;;
16792;SDS011;8513;42.662;23.350;2023-02-10T09:57:48;21.03;;;16.13;;
16792;SDS011;8513;42.662;23.350;2023-02-10T10:02:56;23.80;;;17.03;;
16792;SDS011;8513;42.662;23.350;2023-02-10T10:07:54;26.70;;;19.90;;
16792;SDS011;8513;42.662;23.350;2023-02-10T10:10:24;27.07;;;19.03;;
16792;SDS011;8513;42.662;23.350;2023-02-10T10:12:56;31.40;;;19.00;;
16792;SDS011;8513;42.662;23.350;2023-02-10T10:15:21;24.80;;;16.57;;
16792;SDS011;8513;42.662;23.350;2023-02-10T10:21:00;29.90;;;20.30;;
16792;SDS011;8513;42.662;23.350;2023-02-10T10:26:35;23.43;;;17.30;;
16792;SDS011;8513;42.662;23.350;2023-02-10T10:29:13;24.60;;;17.00;;
16792;SDS011;8513;42.662;23.350;2023-02-10T10:31:48;27.73;;;17.47;;
16792;SDS011;8513;42.662;23.350;2023-02-10T10:34:22;24.57;;;18.33;;
16792;SDS011;8513;42.662;23.350;2023-02-10T10:36:55;23.93;;;17.93;;
16792;SDS011;8513;42.662;23.350;2023-02-10T10:41:59;29.37;;;21.33;;
16792;SDS011;8513;42.662;23.350;2023-02-10T10:44:27;27.63;;;19.83;;
16792;SDS011;8513;42.662;23.350;2023-02-10T10:47:04;32.20;;;20.43;;
16792;SDS011;8513;42.662;23.350;2023-02-10T10:49:35;32.03;;;20.53;;
16792;SDS011;8513;42.662;23.350;2023-02-10T10:52:02;30.43;;;19.33;;
16792;SDS011;8513;42.662;23.350;2023-02-10T10:54:38;27.37;;;18.50;;
16792;SDS011;8513;42.662;23.350;2023-02-10T10:57:05;25.73;;;18.47;;
16792;SDS011;8513;42.662;23.350;2023-02-10T10:59:36;28.03;;;19.83;;
16792;SDS011;8513;42.662;23.350;2023-02-10T11:02:14;25.37;;;18.47;;
16792;SDS011;8513;42.662;23.350;2023-02-10T11:04:42;29.80;;;20.07;;
16792;SDS011;8513;42.662;23.350;2023-02-10T11:07:21;24.63;;;18.43;;
16792;SDS011;8513;42.662;23.350;2023-02-10T11:09:51;23.77;;;18.97;;
16792;SDS011;8513;42.662;23.350;2023-02-10T11:15:20;23.67;;;18.43;;
16792;SDS011;8513;42.662;23.350;2023-02-10T11:17:50;22.53;;;18.33;;
16792;SDS011;8513;42.662;23.350;2023-02-10T11:20:24;24.20;;;19.03;;
16792;SDS011;8513;42.662;23.350;2023-02-10T11:22:56;23.40;;;17.63;;
16792;SDS011;8513;42.662;23.350;2023-02-10T11:27:57;27.90;;;18.53;;
16792;SDS011;8513;42.662;23.350;2023-02-10T11:30:25;24.67;;;19.03;;
16792;SDS011;8513;42.662;23.350;2023-02-10T11:32:56;26.43;;;17.93;;
16792;SDS011;8513;42.662;23.350;2023-02-10T11:35:23;24.70;;;18.43;;
16792;SDS011;8513;42.662;23.350;2023-02-10T11:37:53;23.50;;;17.37;;
16792;SDS011;8513;42.662;23.350;2023-02-10T11:42:52;20.30;;;15.87;;
16792;SDS011;8513;42.662;23.350;2023-02-10T11:45:26;26.00;;;16.13;;
16792;SDS011;8513;42.662;23.350;2023-02-10T11:48:04;19.87;;;16.27;;
16792;SDS011;8513;42.662;23.350;2023-02-10T11:51:04;23.73;;;16.40;;
16792;SDS011;8513;42.662;23.350;2023-02-10T11:53:41;26.30;;;16.87;;
16792;SDS011;8513;42.662;23.350;2023-02-10T11:59:19;21.27;;;16.77;;
16792;SDS011;8513;42.662;23.350;2023-02-10T12:01:51;23.77;;;16.37;;
16792;SDS011;8513;42.662;23.350;2023-02-10T12:04:29;26.37;;;16.13;;
16792;SDS011;8513;42.662;23.350;2023-02-10T12:20:55;18.90;;;14.97;;
16792;SDS011;8513;42.662;23.350;2023-02-10T12:28:56;25.80;;;16.20;;
16792;SDS011;8513;42.662;23.350;2023-02-10T12:34:43;23.27;;;17.33;;
16792;SDS011;8513;42.662;23.350;2023-02-10T12:37:34;24.35;;;17.67;;
16792;SDS011;8513;42.662;23.350;2023-02-10T12:45:37;20.73;;;17.42;;
16792;SDS011;8513;42.662;23.350;2023-02-10T12:48:19;25.88;;;19.08;;
16792;SDS011;8513;42.662;23.350;2023-02-10T12:53:37;22.50;;;18.48;;
16792;SDS011;8513;42.662;23.350;2023-02-10T12:56:20;22.92;;;19.08;;
16792;SDS011;8513;42.662;23.350;2023-02-10T12:59:06;21.17;;;18.77;;
16792;SDS011;8513;42.662;23.350;2023-02-10T13:02:13;21.80;;;19.02;;
16792;SDS011;8513;42.662;23.350;2023-02-10T13:04:38;27.58;;;19.17;;
16792;SDS011;8513;42.662;23.350;2023-02-10T13:12:41;20.00;;;17.35;;
16792;SDS011;8513;42.662;23.350;2023-02-10T13:15:14;20.75;;;18.65;;
16792;SDS011;8513;42.662;23.350;2023-02-10T13:17:44;24.90;;;22.30;;
16792;SDS011;8513;42.662;23.350;2023-02-10T13:23:06;20.75;;;18.13;;
16792;SDS011;8513;42.662;23.350;2023-02-10T13:28:50;24.17;;;18.80;;
16792;SDS011;8513;42.662;23.350;2023-02-10T13:34:03;21.52;;;18.45;;
16792;SDS011;8513;42.662;23.350;2023-02-10T13:36:50;22.42;;;20.13;;
16792;SDS011;8513;42.662;23.350;2023-02-10T13:39:31;22.50;;;20.15;;
16792;SDS011;8513;42.662;23.350;2023-02-10T13:42:09;23.20;;;20.88;;
16792;SDS011;8513;42.662;23.350;2023-02-10T13:44:42;21.90;;;19.23;;
16792;SDS011;8513;42.662;23.350;2023-02-10T13:49:56;21.55;;;19.52;;
16792;SDS011;8513;42.662;23.350;2023-02-10T13:52:26;23.40;;;21.10;;
16792;SDS011;8513;42.662;23.350;2023-02-10T13:55:05;22.60;;;20.30;;
16792;SDS011;8513;42.662;23.350;2023-02-10T13:57:58;23.38;;;20.20;;
16792;SDS011;8513;42.662;23.350;2023-02-10T14:00:50;23.70;;;19.40;;
16792;SDS011;8513;42.662;23.350;2023-02-10T14:05:52;25.52;;;20.13;;
16792;SDS011;8513;42.662;23.350;2023-02-10T14:08:33;25.13;;;19.40;;
16792;SDS011;8513;42.662;23.350;2023-02-10T14:11:23;27.30;;;19.43;;
16792;SDS011;8513;42.662;23.350;2023-02-10T14:14:00;21.80;;;19.47;;
16792;SDS011;8513;42.662;23.350;2023-02-10T14:19:03;21.80;;;19.13;;
16792;SDS011;8513;42.662;23.350;2023-02-10T14:21:38;27.37;;;19.87;;
16792;SDS011;8513;42.662;23.350;2023-02-10T14:24:09;25.20;;;18.40;;
16792;SDS011;8513;42.662;23.350;2023-02-10T14:26:41;23.13;;;19.17;;
16792;SDS011;8513;42.662;23.350;2023-02-10T14:29:14;24.47;;;19.30;;
16792;SDS011;8513;42.662;23.350;2023-02-10T14:31:45;23.80;;;19.37;;
16792;SDS011;8513;42.662;23.350;2023-02-10T14:36:55;23.23;;;19.07;;
16792;SDS011;8513;42.662;23.350;2023-02-10T14:39:23;27.40;;;20.27;;
16792;SDS011;8513;42.662;23.350;2023-02-10T14:41:50;24.73;;;19.37;;
16792;SDS011;8513;42.662;23.350;2023-02-10T14:44:40;27.63;;;20.30;;
16792;SDS011;8513;42.662;23.350;2023-02-10T14:47:15;28.07;;;20.13;;
16792;SDS011;8513;42.662;23.350;2023-02-10T14:49:43;28.67;;;19.73;;
16792;SDS011;8513;42.662;23.350;2023-02-10T14:52:26;25.67;;;20.60;;
16792;SDS011;8513;42.662;23.350;2023-02-10T14:58:08;27.77;;;21.60;;
16792;SDS011;8513;42.662;23.350;2023-02-10T15:00:36;32.00;;;22.27;;
16792;SDS011;8513;42.662;23.350;2023-02-10T15:03:03;29.17;;;21.50;;
16792;SDS011;8513;42.662;23.350;2023-02-10T15:05:34;30.23;;;23.13;;
16792;SDS011;8513;42.662;23.350;2023-02-10T15:08:03;28.87;;;21.20;;
16792;SDS011;8513;42.662;23.350;2023-02-10T15:10:33;30.40;;;21.97;;
16792;SDS011;8513;42.662;23.350;2023-02-10T15:13:03;30.30;;;22.77;;
16792;SDS011;8513;42.662;23.350;2023-02-10T15:15:35;33.50;;;22.93;;
16792;SDS011;8513;42.662;23.350;2023-02-10T15:18:06;30.00;;;23.43;;
16792;SDS011;8513;42.662;23.350;2023-02-10T15:20:36;34.67;;;23.80;;
16792;SDS011;8513;42.662;23.350;2023-02-10T15:33:39;37.43;;;26.13;;
16792;SDS011;8513;42.662;23.350;2023-02-10T15:36:25;40.13;;;27.63;;
16792;SDS011;8513;42.662;23.350;2023-02-10T15:46:48;46.30;;;29.27;;
16792;SDS011;8513;42.662;23.350;2023-02-10T15:49:16;46.77;;;29.77;;
16792;SDS011;8513;42.662;23.350;2023-02-10T15:52:04;50.53;;;31.67;;
16792;SDS011;8513;42.662;23.350;2023-02-10T15:54:29;51.10;;;32.80;;
16792;SDS011;8513;42.662;23.350;2023-02-10T15:59:23;55.37;;;34.63;;
16792;SDS011;8513;42.662;23.350;2023-02-10T16:02:02;53.87;;;34.40;;
16792;SDS011;8513;42.662;23.350;2023-02-10T16:04:31;54.73;;;36.10;;
16792;SDS011;8513;42.662;23.350;2023-02-10T16:06:57;61.70;;;37.33;;
16792;SDS011;8513;42.662;23.350;2023-02-10T16:09:24;60.10;;;37.93;;
16792;SDS011;8513;42.662;23.350;2023-02-10T16:11:50;63.67;;;38.47;;
16792;SDS011;8513;42.662;23.350;2023-02-10T16:14:16;59.37;;;37.50;;
16792;SDS011;8513;42.662;23.350;2023-02-10T16:16:45;54.90;;;38.30;;
16792;SDS011;8513;42.662;23.350;2023-02-10T16:19:14;56.23;;;37.70;;
16792;SDS011;8513;42.662;23.350;2023-02-10T16:21:41;58.53;;;38.83;;
16792;SDS011;8513;42.662;23.350;2023-02-10T16:24:17;63.17;;;40.87;;
16792;SDS011;8513;42.662;23.350;2023-02-10T16:26:44;62.77;;;41.73;;
16792;SDS011;8513;42.662;23.350;2023-02-10T16:29:14;63.10;;;41.70;;
16792;SDS011;8513;42.662;23.350;2023-02-10T16:31:41;68.47;;;45.47;;
16792;SDS011;8513;42.662;23.350;2023-02-10T16:34:07;65.23;;;44.03;;
16792;SDS011;8513;42.662;23.350;2023-02-10T16:36:33;70.73;;;45.20;;
16792;SDS011;8513;42.662;23.350;2023-02-10T16:38:59;67.90;;;45.17;;
16792;SDS011;8513;42.662;23.350;2023-02-10T16:41:27;66.20;;;44.23;;
16792;SDS011;8513;42.662;23.350;2023-02-10T16:43:53;64.07;;;43.20;;
16792;SDS011;8513;42.662;23.350;2023-02-10T16:46:18;62.73;;;42.90;;